Time;durP1;ratioP1;P1;durP2;ratioP2;P2;SDS_P1;SDS_P2;PMS_P1;PMS_P2;Temp;Humidity;BMP_temperature;BMP_pressure;BME280_temperature;BME280_humidity;BME280_pressure;Samples;Min_cycle;Max_cycle;Signal;HPM_P1;HPM_P2
2023/10/07 00:00:31;;;;;;;6.45;1.80;;;;;;;15.94;92.09;102242.78;4975444;28;96840;-28
2023/10/07 00:02:59;;;;;;;4.25;1.48;;;;;;;15.91;92.22;102238.38;4975035;28;101142;-28
2023/10/07 00:05:35;;;;;;;3.47;1.40;;;;;;;15.88;91.89;102233.13;4974800;28;101072;-29
2023/10/07 00:08:07;;;;;;;5.20;1.17;;;;;;;15.90;92.35;102252.16;4975270;28;96714;-29
2023/10/07 00:10:37;;;;;;;5.80;1.60;;;;;;;15.90;92.99;102263.09;4976646;28;96683;-28
2023/10/07 00:13:08;;;;;;;3.97;1.27;;;;;;;15.88;93.03;102262.31;4959311;28;101580;-28
2023/10/07 00:15:34;;;;;;;7.53;1.98;;;;;;;15.88;92.71;102260.44;4975280;28;100879;-28
2023/10/07 00:18:06;;;;;;;5.93;1.42;;;;;;;15.84;93.15;102245.19;4975017;28;96757;-28
2023/10/07 00:20:33;;;;;;;6.50;1.27;;;;;;;15.87;93.52;102245.03;4975205;28;96716;-28
2023/10/07 00:23:00;;;;;;;3.08;1.40;;;;;;;15.89;93.69;102240.31;4974183;28;98057;-29
2023/10/07 00:25:30;;;;;;;3.97;1.38;;;;;;;15.92;93.05;102233.78;4974686;28;101228;-28
2023/10/07 00:27:56;;;;;;;5.32;1.80;;;;;;;15.95;93.04;102241.81;4976249;28;96994;-28
2023/10/07 00:30:22;;;;;;;4.45;1.65;;;;;;;15.96;93.20;102229.03;4976465;28;96946;-28
2023/10/07 00:32:50;;;;;;;4.43;1.60;;;;;;;15.97;93.96;102230.78;4974525;28;101354;-29
2023/10/07 00:35:19;;;;;;;5.07;1.48;;;;;;;15.97;93.63;102222.56;4975701;28;99210;-29
2023/10/07 00:37:45;;;;;;;9.63;1.95;;;;;;;15.96;93.89;102213.50;4974835;28;96635;-28
2023/10/07 00:42:55;;;;;;;5.72;1.40;;;;;;;16.00;93.94;102209.63;4975669;28;97124;-28
2023/10/07 00:45:24;;;;;;;10.27;2.08;;;;;;;16.00;95.06;102212.34;4975382;28;96872;-28
2023/10/07 00:47:52;;;;;;;3.65;1.23;;;;;;;16.02;94.08;102217.72;4974093;28;97893;-29
2023/10/07 00:50:17;;;;;;;6.13;1.50;;;;;;;16.02;94.28;102210.41;4974657;28;96564;-28
2023/10/07 00:55:29;;;;;;;4.68;1.67;;;;;;;16.10;93.95;102243.59;5005090;28;97289;-28
2023/10/07 00:58:32;;;;;;;6.35;1.80;;;;;;;16.09;93.60;102232.75;4976311;28;96672;-28
2023/10/07 01:00:48;;;;;;;4.57;1.55;;;;;;;16.07;94.06;102230.13;4974479;28;96835;-29
2023/10/07 01:08:29;;;;;;;8.32;1.52;;;;;;;16.12;94.41;102217.03;4973753;28;96724;-28
2023/10/07 01:11:19;;;;;;;7.45;1.23;;;;;;;16.16;94.42;102216.84;4974287;28;96759;-29
2023/10/07 01:13:50;;;;;;;3.15;1.23;;;;;;;16.21;94.33;102218.31;4974591;28;98725;-28
2023/10/07 01:16:41;;;;;;;9.55;2.55;;;;;;;16.21;95.12;102222.88;4973968;28;101012;-28
2023/10/07 01:19:19;;;;;;;3.70;1.38;;;;;;;16.21;93.75;102214.69;4975535;28;96539;-28
2023/10/07 01:21:56;;;;;;;9.18;1.70;;;;;;;16.24;94.16;102214.50;4975487;28;96629;-28
2023/10/07 01:27:02;;;;;;;3.95;1.55;;;;;;;16.31;94.35;102230.41;4972909;28;97835;-28
2023/10/07 01:29:30;;;;;;;8.27;1.90;;;;;;;16.33;93.97;102227.59;4974192;28;96593;-28
2023/10/07 01:32:12;;;;;;;6.38;1.40;;;;;;;16.31;93.53;102207.66;4974329;28;96619;-28
2023/10/07 01:34:37;;;;;;;;;;;;;;;16.33;94.19;102213.94;4974277;28;100892;-28
2023/10/07 01:37:04;;;;;;;4.55;1.33;;;;;;;16.33;94.10;102197.53;4975297;28;97327;-28
2023/10/07 01:39:40;;;;;;;3.05;1.38;;;;;;;16.34;94.10;102207.47;4973500;28;96617;-28
2023/10/07 01:42:14;;;;;;;3.45;1.42;;;;;;;16.37;93.95;102204.53;4975431;28;96621;-28
2023/10/07 01:44:41;;;;;;;2.70;1.13;;;;;;;16.40;94.14;102201.63;4974559;28;98083;-28
2023/10/07 01:47:16;;;;;;;1.38;0.82;;;;;;;16.44;94.04;102197.69;4973458;28;101330;-28
2023/10/07 01:49:43;;;;;;;2.75;1.45;;;;;;;16.44;93.37;102202.28;4973764;28;96690;-28
2023/10/07 01:52:09;;;;;;;4.45;1.60;;;;;;;16.44;93.20;102194.06;4973728;28;96856;-28
2023/10/07 01:54:35;;;;;;;3.10;1.23;;;;;;;16.46;93.49;102195.72;4973381;28;100910;-28
2023/10/07 01:57:04;;;;;;;5.45;1.58;;;;;;;16.48;93.13;102188.31;4973676;28;101199;-28
2023/10/07 01:59:30;;;;;;;2.88;1.20;;;;;;;16.47;93.21;102188.41;4973666;28;96683;-29
2023/10/07 02:02:05;;;;;;;5.38;1.30;;;;;;;16.54;93.59;102201.59;4973522;28;96904;-31
2023/10/07 02:04:32;;;;;;;2.70;1.23;;;;;;;16.55;93.79;102197.88;4973080;28;101186;-29
2023/10/07 02:06:58;;;;;;;7.80;1.77;;;;;;;16.59;93.59;102214.06;4974655;28;99582;-28
2023/10/07 02:09:26;;;;;;;5.97;1.55;;;;;;;16.60;93.36;102194.84;4974896;28;96612;-28
2023/10/07 02:11:56;;;;;;;5.85;1.40;;;;;;;16.65;93.54;102202.75;4973610;28;96873;-29
2023/10/07 02:14:27;;;;;;;4.75;1.33;;;;;;;16.63;93.46;102193.75;4973097;28;102152;-29
2023/10/07 02:16:53;;;;;;;6.00;1.35;;;;;;;16.68;93.41;102199.78;4974350;28;99337;-28
2023/10/07 02:19:29;;;;;;;3.97;1.30;;;;;;;16.67;93.03;102181.63;4973411;28;96755;-28
2023/10/07 02:21:59;;;;;;;3.20;1.17;;;;;;;16.64;93.27;102179.13;4976466;28;96704;-30
2023/10/07 02:24:29;;;;;;;6.13;1.20;;;;;;;16.70;92.74;102201.44;4976610;28;100890;-28
2023/10/07 02:26:59;;;;;;;5.13;1.20;;;;;;;16.67;93.04;102198.06;4976559;28;100937;-28
2023/10/07 02:29:26;;;;;;;4.90;1.67;;;;;;;16.72;93.25;102201.38;4978028;28;96653;-28
2023/10/07 02:31:53;;;;;;;4.18;1.20;;;;;;;16.67;92.93;102184.38;4978353;28;96788;-29
2023/10/07 02:34:28;;;;;;;3.72;1.52;;;;;;;16.67;93.09;102187.09;4977738;28;99416;-28
2023/10/07 02:37:10;;;;;;;5.38;1.48;;;;;;;16.67;93.02;102192.59;4976414;28;100798;-28
2023/10/07 02:39:45;;;;;;;2.42;1.30;;;;;;;16.68;93.27;102195.19;5010130;28;97156;-28
2023/10/07 02:42:38;;;;;;;7.95;1.75;;;;;;;16.63;93.31;102191.88;4976499;28;96859;-28
2023/10/07 02:45:28;;;;;;;6.18;1.80;;;;;;;16.64;93.23;102192.78;4976665;28;98861;-28
2023/10/07 02:47:53;;;;;;;1.85;0.90;;;;;;;16.66;93.57;102204.47;4977630;28;98660;-28
2023/10/07 02:50:19;;;;;;;5.18;1.63;;;;;;;16.63;93.68;102196.50;4977715;28;96541;-28
2023/10/07 02:52:47;;;;;;;2.05;0.98;;;;;;;16.62;93.55;102190.16;4977775;28;96891;-28
2023/10/07 02:57:39;;;;;;;4.32;1.50;;;;;;;16.67;93.38;102187.09;4977573;28;97761;-28
2023/10/07 03:00:16;;;;;;;2.65;1.10;;;;;;;16.65;93.58;102170.78;4977829;28;96672;-29
2023/10/07 03:02:48;;;;;;;5.20;1.00;;;;;;;16.61;93.54;102166.47;4977645;28;96817;-28
2023/10/07 03:05:15;;;;;;;4.35;1.55;;;;;;;16.63;93.58;102177.34;4976056;28;101257;-28
2023/10/07 03:07:42;;;;;;;5.30;1.50;;;;;;;16.63;93.85;102180.94;4976044;28;98970;-28
2023/10/07 03:10:29;;;;;;;5.45;1.65;;;;;;;16.64;94.10;102181.84;4977713;28;96459;-28
2023/10/07 03:12:57;;;;;;;6.82;1.42;;;;;;;16.63;93.95;102191.00;4977883;28;96758;-28
2023/10/07 03:15:41;;;;;;;5.30;1.42;;;;;;;16.62;93.88;102184.69;4977209;28;97968;-28
2023/10/07 03:18:21;;;;;;;4.97;1.05;;;;;;;16.61;94.04;102190.22;4975757;28;100905;-29
2023/10/07 03:20:59;;;;;;;3.22;1.27;;;;;;;16.64;94.51;102203.75;4977006;28;96458;-28
2023/10/07 03:23:26;;;;;;;3.58;1.20;;;;;;;16.60;94.41;102181.16;4975936;28;96746;-28
2023/10/07 03:28:30;;;;;;;6.07;1.20;;;;;;;16.64;94.18;102187.31;4977047;28;97367;-28
2023/10/07 03:30:56;;;;;;;3.10;1.23;;;;;;;16.67;93.80;102195.31;4975962;28;97032;-28
2023/10/07 03:33:23;;;;;;;3.83;1.27;;;;;;;16.68;94.30;102188.84;4976137;28;96694;-28
2023/10/07 03:38:25;;;;;;;3.40;1.08;;;;;;;16.69;94.59;102177.81;4974960;28;97756;-28
2023/10/07 03:40:54;;;;;;;4.88;1.27;;;;;;;16.64;94.68;102181.84;5008971;28;96582;-28
2023/10/07 03:43:26;;;;;;;2.60;1.20;;;;;;;16.65;95.02;102178.13;4975228;28;96984;-28
2023/10/07 03:45:55;;;;;;;1.48;1.00;;;;;;;16.67;94.39;102176.16;4975751;28;99524;-29
2023/10/07 03:48:34;;;;;;;4.80;1.52;;;;;;;16.67;94.68;102176.16;5008389;28;101191;-28
2023/10/07 03:51:05;;;;;;;3.38;1.30;;;;;;;16.67;94.34;102173.44;4975637;28;96650;-29
2023/10/07 03:53:44;;;;;;;2.70;1.10;;;;;;;16.66;94.77;102180.78;4976949;28;96508;-28
2023/10/07 03:56:10;;;;;;;3.47;1.33;;;;;;;16.66;94.51;102180.78;4976664;28;98994;-28
2023/10/07 03:58:36;;;;;;;8.00;1.45;;;;;;;16.68;94.46;102177.91;4975133;28;101079;-28
2023/10/07 04:01:22;;;;;;;2.05;1.15;;;;;;;16.67;94.39;102187.97;4975361;28;96684;-28
2023/10/07 04:03:50;;;;;;;2.08;1.20;;;;;;;16.67;94.64;102195.31;4975704;28;96740;-29
2023/10/07 04:06:17;;;;;;;3.75;1.40;;;;;;;16.61;94.72;102182.91;4975099;28;100930;-29
2023/10/07 04:08:53;;;;;;;5.43;1.27;;;;;;;16.66;94.85;102185.34;5008397;28;101226;-28
2023/10/07 04:11:25;;;;;;;7.45;1.33;;;;;;;16.63;95.23;102180.06;4976187;28;96608;-28
2023/10/07 04:13:53;;;;;;;3.53;1.25;;;;;;;16.64;95.52;102177.25;4975275;28;96554;-28
2023/10/07 04:16:27;;;;;;;7.30;1.60;;;;;;;16.66;95.08;102174.38;4974800;28;101355;-29
2023/10/07 04:19:30;;;;;;;5.55;1.08;;;;;;;16.61;95.09;102171.97;4974989;28;100981;-28
2023/10/07 04:21:55;;;;;;;3.22;1.15;;;;;;;16.63;95.09;102163.66;4976278;28;96558;-28
2023/10/07 04:24:25;;;;;;;7.93;1.75;;;;;;;16.63;95.11;102158.19;4974982;28;96875;-28
2023/10/07 04:27:03;;;;;;;5.82;1.38;;;;;;;16.63;94.88;102164.53;4976045;28;99425;-28
2023/10/07 04:29:32;;;;;;;3.53;1.58;;;;;;;16.64;95.15;102163.56;4976700;28;97884;-28
2023/10/07 04:32:06;;;;;;;3.45;1.38;;;;;;;16.68;95.14;102169.69;4975031;28;96495;-28
2023/10/07 04:34:35;;;;;;;3.67;1.25;;;;;;;16.68;95.08;102158.75;4975145;28;96752;-28
2023/10/07 04:39:36;;;;;;;4.72;1.70;;;;;;;16.66;95.20;102156.16;4976022;28;96779;-28
2023/10/07 04:42:04;;;;;;;1.55;1.00;;;;;;;16.65;95.53;102156.22;4976256;28;96502;-28
2023/10/07 04:52:28;;;;;;;9.05;1.50;;;;;;;16.66;95.81;102168.91;4976086;28;96656;-29
2023/10/07 04:54:56;;;;;;;3.83;1.27;;;;;;;16.64;96.42;102165.44;4974937;28;96764;-28
2023/10/07 04:57:43;;;;;;;3.83;1.27;;;;;;;16.65;96.01;102157.09;4975658;28;98449;-28
2023/10/07 05:00:08;;;;;;;3.40;1.42;;;;;;;16.61;96.37;102149.19;4975523;28;98968;-29
2023/10/07 05:02:34;;;;;;;3.88;1.45;;;;;;;16.59;96.63;102157.53;4973886;28;96631;-29
2023/10/07 05:05:00;;;;;;;4.85;1.48;;;;;;;16.63;96.47;102160.91;4974390;28;96920;-28
2023/10/07 05:07:26;;;;;;;5.13;1.58;;;;;;;16.64;96.28;102159.97;4975359;28;97972;-28
2023/10/07 05:09:56;;;;;;;4.00;1.33;;;;;;;16.64;96.10;102165.44;4974145;28;101354;-28
2023/10/07 05:12:22;;;;;;;7.75;1.95;;;;;;;16.64;96.48;102170.91;4974317;28;96576;-29
2023/10/07 05:14:48;;;;;;;5.75;1.55;;;;;;;16.63;96.61;102172.75;4975685;28;96777;-30
2023/10/07 05:17:13;;;;;;;3.85;1.58;;;;;;;16.64;96.65;102170.91;4973965;28;99311;-28
2023/10/07 05:19:39;;;;;;;4.78;1.60;;;;;;;16.61;97.10;102168.34;4975892;28;97781;-28
2023/10/07 05:22:18;;;;;;;3.05;1.30;;;;;;;16.63;96.96;102174.59;4975601;28;96717;-28
2023/10/07 05:24:46;;;;;;;2.50;1.27;;;;;;;16.68;96.85;102177.91;4974360;28;96768;-28
2023/10/07 05:27:12;;;;;;;5.18;1.88;;;;;;;16.64;96.78;102177.25;4974813;28;97901;-28
2023/10/07 05:29:40;;;;;;;8.55;1.25;;;;;;;16.69;97.22;102187.88;4973767;28;99907;-28
2023/10/07 05:32:06;;;;;;;4.72;1.30;;;;;;;16.69;97.10;102187.88;4975230;28;96625;-28
2023/10/07 05:34:33;;;;;;;7.43;1.92;;;;;;;16.65;97.55;102179.00;4975271;28;96816;-29
2023/10/07 05:37:05;;;;;;;4.93;1.77;;;;;;;16.66;97.36;102168.91;4973601;28;101014;-28
2023/10/07 05:39:33;;;;;;;6.93;1.90;;;;;;;16.67;97.13;102170.69;4973755;28;101359;-28
2023/10/07 05:41:59;;;;;;;6.75;1.77;;;;;;;16.68;97.43;102180.66;4975487;28;96712;-29
2023/10/07 05:44:24;;;;;;;4.43;1.60;;;;;;;16.70;97.89;102182.28;4974813;28;96809;-29
2023/10/07 05:46:50;;;;;;;7.35;1.85;;;;;;;16.70;97.45;102193.25;4975241;28;97973;-30
2023/10/07 05:49:16;;;;;;;2.58;1.70;;;;;;;16.68;97.75;102191.59;4974502;28;99159;-28
2023/10/07 05:51:44;;;;;;;3.58;1.40;;;;;;;16.65;98.16;102189.06;4974770;28;96775;-29
2023/10/07 05:54:09;;;;;;;3.67;1.58;;;;;;;16.69;98.00;102196.97;4974992;28;96828;-30
2023/10/07 05:56:35;;;;;;;3.10;1.20;;;;;;;16.64;98.22;102192.78;4973894;28;99552;-28
2023/10/07 05:59:01;;;;;;;4.35;1.35;;;;;;;16.67;97.57;102192.59;4974955;28;97748;-28
2023/10/07 06:01:27;;;;;;;7.22;1.52;;;;;;;16.67;98.24;102187.09;4973781;28;96488;-28
2023/10/07 06:03:52;;;;;;;3.97;1.70;;;;;;;16.70;97.67;102195.97;4975257;28;96826;-28
2023/10/07 06:06:20;;;;;;;8.98;2.25;;;;;;;16.70;98.24;102197.84;4974706;28;99279;-29
2023/10/07 06:08:46;;;;;;;5.53;1.63;;;;;;;16.67;97.98;102187.09;4957607;28;99562;-28
2023/10/07 06:11:12;;;;;;;8.07;2.00;;;;;;;16.68;98.44;102175.16;4974799;28;96502;-30
2023/10/07 06:13:40;;;;;;;5.90;1.45;;;;;;;16.70;98.33;102179.56;4975196;28;96779;-28
2023/10/07 06:16:07;;;;;;;6.90;1.88;;;;;;;16.72;98.71;102184.94;4974071;28;99336;-32
2023/10/07 06:18:33;;;;;;;3.78;1.40;;;;;;;16.72;98.43;102183.06;4973149;28;99018;-28
2023/10/07 06:21:14;;;;;;;8.15;1.63;;;;;;;16.73;98.71;102187.59;4974997;28;96660;-28
2023/10/07 06:23:41;;;;;;;3.13;1.45;;;;;;;16.72;98.45;102195.88;4973756;28;96727;-28
2023/10/07 06:26:09;;;;;;;3.63;1.50;;;;;;;16.71;98.39;102199.63;4973142;28;100904;-28
2023/10/07 06:28:35;;;;;;;8.60;2.05;;;;;;;16.73;98.81;102201.28;4973171;28;100738;-28
2023/10/07 06:31:00;;;;;;;6.25;1.70;;;;;;;16.75;98.21;102192.94;4974774;28;96629;-28
2023/10/07 06:33:26;;;;;;;5.80;2.25;;;;;;;16.72;98.55;102172.13;4974958;28;96756;-28
2023/10/07 06:35:52;;;;;;;7.43;2.17;;;;;;;16.72;98.44;102165.78;4974532;28;98046;-28
2023/10/07 06:38:21;;;;;;;7.45;1.88;;;;;;;16.78;99.11;102157.19;4972903;28;100010;-29
2023/10/07 06:40:48;;;;;;;6.72;1.67;;;;;;;16.71;99.13;102167.66;4974322;28;96677;-28
2023/10/07 06:43:14;;;;;;;3.60;1.58;;;;;;;16.75;98.73;102173.78;4972654;28;96945;-28
2023/10/07 06:45:44;;;;;;;2.95;1.55;;;;;;;16.79;98.80;102177.25;4972496;28;100839;-28
2023/10/07 06:48:11;;;;;;;7.40;1.60;;;;;;;16.80;98.84;102179.00;4972922;28;101223;-28
2023/10/07 06:50:41;;;;;;;7.57;1.83;;;;;;;16.77;98.98;102182.78;4974679;28;96675;-30
2023/10/07 06:53:11;;;;;;;7.97;1.85;;;;;;;16.81;98.56;102192.59;4973240;28;96797;-28
2023/10/07 06:55:41;;;;;;;4.38;1.90;;;;;;;16.75;98.65;102201.16;4972839;28;101250;-28
2023/10/07 06:58:07;;;;;;;6.57;1.83;;;;;;;16.75;99.25;102207.50;4973103;28;100718;-28
2023/10/07 07:01:22;;;;;;;6.00;1.90;;;;;;;16.73;99.19;102194.91;4973066;28;96736;-30
2023/10/07 07:03:18;;;;;;;7.65;1.88;;;;;;;16.74;99.54;102192.06;4973085;28;96943;-28
2023/10/07 07:05:48;;;;;;;2.95;1.42;;;;;;;16.79;98.81;102197.28;4973763;28;97889;-30
2023/10/07 07:08:13;;;;;;;6.05;1.70;;;;;;;16.80;98.88;102200.88;4975864;28;98395;-28
2023/10/07 07:10:40;;;;;;;7.25;2.15;;;;;;;16.87;98.53;102204.97;4977710;28;96602;-28
2023/10/07 07:13:13;;;;;;;5.00;1.80;;;;;;;16.89;98.04;102211.22;4976240;28;96891;-28
2023/10/07 07:15:41;;;;;;;9.13;2.05;;;;;;;16.90;98.48;102222.06;4976055;28;101020;-28
2023/10/07 07:18:14;;;;;;;12.23;2.08;;;;;;;16.93;98.93;102229.22;4975706;28;101133;-28
2023/10/07 07:21:00;;;;;;;6.32;2.33;;;;;;;16.95;98.43;102213.56;4976270;28;96613;-28
2023/10/07 07:23:35;;;;;;;6.55;1.80;;;;;;;16.90;98.27;102216.59;4977767;28;96749;-28
2023/10/07 07:28:27;;;;;;;8.70;1.83;;;;;;;16.94;98.14;102222.75;4977115;28;96944;-29
2023/10/07 07:30:57;;;;;;;3.75;1.67;;;;;;;17.04;97.95;102232.13;4976798;28;96568;-28
2023/10/07 07:33:28;;;;;;;3.88;1.33;;;;;;;17.13;97.85;102244.28;4975850;28;96786;-28
2023/10/07 07:35:56;;;;;;;5.60;1.80;;;;;;;17.09;97.82;102240.91;4975638;28;101079;-28
2023/10/07 07:38:29;;;;;;;5.50;1.83;;;;;;;17.14;97.13;102238.72;4975815;28;100445;-28
2023/10/07 07:43:53;;;;;;;6.03;1.48;;;;;;;17.19;97.21;102241.16;4967282;28;96857;-28
2023/10/07 07:46:18;;;;;;;5.03;1.80;;;;;;;17.19;97.05;102242.03;4974957;28;101649;-28
2023/10/07 07:48:48;;;;;;;6.85;1.67;;;;;;;17.31;96.25;102254.00;4977219;28;97290;-29
2023/10/07 07:51:17;;;;;;;5.07;1.60;;;;;;;17.37;96.08;102250.84;4977120;28;96497;-28
2023/10/07 07:53:43;;;;;;;6.20;1.70;;;;;;;17.49;95.56;102251.00;4975623;28;96846;-28
2023/10/07 07:56:12;;;;;;;4.25;1.80;;;;;;;17.60;95.49;102241.06;4974611;28;100700;-28
2023/10/07 07:58:39;;;;;;;9.27;1.83;;;;;;;17.74;94.75;102242.84;4975166;28;101158;-28
2023/10/07 08:01:07;;;;;;;12.60;1.83;;;;;;;17.86;93.73;102235.66;4975482;28;96708;-28
2023/10/07 08:03:35;;;;;;;7.35;1.63;;;;;;;18.01;93.65;102240.06;4976642;28;96838;-28
2023/10/07 08:06:04;;;;;;;9.00;1.95;;;;;;;18.09;93.43;102242.28;4974927;28;101340;-30
2023/10/07 08:08:29;;;;;;;7.13;1.90;;;;;;;18.13;92.71;102241.03;4975026;28;101295;-28
2023/10/07 08:10:55;;;;;;;4.60;1.90;;;;;;;18.20;92.57;102234.13;4976687;28;96727;-28
2023/10/07 08:13:27;;;;;;;9.02;2.17;;;;;;;18.24;91.99;102221.09;4977133;28;96849;-28
2023/10/07 08:15:56;;;;;;;6.00;1.85;;;;;;;18.38;92.09;102236.56;4974994;28;100957;-28
2023/10/07 08:18:31;;;;;;;4.13;1.85;;;;;;;18.46;91.31;102239.63;4974873;28;101162;-28
2023/10/07 08:21:06;;;;;;;7.07;1.77;;;;;;;18.53;90.80;102240.06;4974039;28;96664;-28
2023/10/07 08:23:40;;;;;;;8.05;1.75;;;;;;;18.57;90.77;102231.47;4974961;28;96818;-28
2023/10/07 08:26:13;;;;;;;7.78;1.88;;;;;;;18.62;90.53;102232.00;4975849;28;99284;-29
2023/10/07 08:28:42;;;;;;;8.52;1.90;;;;;;;18.67;90.17;102239.91;4976038;28;99528;-28
2023/10/07 08:31:17;;;;;;;10.90;2.05;;;;;;;18.72;90.14;102234.97;4974968;28;96522;-28
2023/10/07 08:36:30;;;;;;;7.13;2.22;;;;;;;18.80;89.57;102237.16;4973859;28;97975;-29
2023/10/07 08:39:04;;;;;;;11.05;2.47;;;;;;;18.83;89.84;102228.69;4976448;28;97639;-28
2023/10/07 08:41:31;;;;;;;6.93;2.03;;;;;;;18.96;89.62;102235.03;4976429;28;96755;-28
2023/10/07 08:46:39;;;;;;;4.85;1.75;;;;;;;19.05;89.03;102234.34;4972840;28;97982;-28
2023/10/07 08:49:12;;;;;;;4.05;1.55;;;;;;;19.08;88.64;102225.00;4975696;28;99249;-29
2023/10/07 08:51:41;;;;;;;7.80;2.33;;;;;;;19.17;88.82;102229.78;4974592;28;97287;-28
2023/10/07 08:54:17;;;;;;;6.32;1.85;;;;;;;19.22;88.19;102218.44;4975924;28;96885;-28
2023/10/07 08:56:50;;;;;;;6.13;2.10;;;;;;;19.26;88.00;102214.47;4975656;28;98514;-30
2023/10/07 08:59:17;;;;;;;7.30;2.05;;;;;;;19.28;86.94;102234.44;4974274;28;100963;-28
2023/10/07 09:01:44;;;;;;;7.68;1.73;;;;;;;19.20;87.32;102225.94;4974400;28;96746;-28
2023/10/07 09:04:10;;;;;;;8.27;2.50;;;;;;;19.15;86.56;102236.41;4991400;28;96866;-28
2023/10/07 09:06:37;;;;;;;5.18;1.48;;;;;;;19.04;87.13;102246.34;4975558;28;98133;-28
2023/10/07 09:09:08;;;;;;;8.05;2.10;;;;;;;18.91;87.44;102240.00;4974128;28;101028;-28
2023/10/07 09:11:38;;;;;;;5.40;1.85;;;;;;;18.86;87.05;102240.34;4973889;28;96664;-28
2023/10/07 09:14:07;;;;;;;7.90;2.03;;;;;;;18.78;86.66;102234.53;4974342;28;96909;-28
2023/10/07 09:16:33;;;;;;;3.47;1.70;;;;;;;18.70;87.36;102225.09;4975321;28;99356;-28
2023/10/07 09:19:03;;;;;;;5.88;1.77;;;;;;;18.73;87.48;102233.09;4973961;28;101107;-27
2023/10/07 09:21:33;;;;;;;6.00;1.83;;;;;;;18.74;87.19;102227.50;4975500;28;96669;-28
2023/10/07 09:24:02;;;;;;;6.63;1.58;;;;;;;18.78;87.37;102214.44;4974217;28;96981;-28
2023/10/07 09:26:34;;;;;;;8.00;2.20;;;;;;;18.86;86.72;102206.50;5007109;28;101387;-28
2023/10/07 09:29:14;;;;;;;7.18;1.73;;;;;;;19.05;86.78;102217.00;4974258;28;99961;-28
2023/10/07 09:31:41;;;;;;;6.88;2.10;;;;;;;19.25;86.15;102223.69;4974072;28;96608;-27
2023/10/07 09:34:09;;;;;;;4.18;1.75;;;;;;;19.41;85.50;102221.53;4973996;28;96744;-28
2023/10/07 09:36:40;;;;;;;11.10;2.45;;;;;;;19.62;84.91;102237.38;4974467;28;99346;-28
2023/10/07 09:41:39;;;;;;;6.00;1.83;;;;;;;19.84;83.62;102244.84;4973909;28;96662;-28
2023/10/07 09:44:26;;;;;;;9.10;1.98;;;;;;;19.94;83.17;102243.97;5006312;28;97028;-29
2023/10/07 09:46:52;;;;;;;7.20;2.20;;;;;;;20.12;82.13;102243.53;4974787;28;99617;-28
2023/10/07 09:49:20;;;;;;;8.10;2.53;;;;;;;20.14;82.58;102256.16;4973370;28;101461;-28
2023/10/07 09:51:50;;;;;;;7.45;2.20;;;;;;;20.23;82.02;102251.78;4973716;28;96613;-28
2023/10/07 09:54:16;;;;;;;9.23;1.80;;;;;;;20.35;81.19;102253.56;4975466;28;96704;-28
2023/10/07 09:56:59;;;;;;;9.32;2.10;;;;;;;20.45;79.81;102256.47;4974486;28;101113;-28
2023/10/07 09:59:42;;;;;;;4.70;1.95;;;;;;;20.54;79.53;102260.31;4973359;28;101320;-28
2023/10/07 10:02:42;;;;;;;7.93;1.90;;;;;;;20.65;79.26;102249.34;4973445;28;96547;-28
2023/10/07 10:05:35;;;;;;;8.50;1.90;;;;;;;20.79;78.23;102260.09;4975192;28;96604;-28
2023/10/07 10:08:27;;;;;;;8.02;1.92;;;;;;;20.98;78.17;102269.59;4973355;28;99253;-28
2023/10/07 10:10:57;;;;;;;;;;;;;;;21.14;77.15;102261.81;4975386;28;96910;-28
2023/10/07 10:14:16;;;;;;;5.13;1.63;;;;;;;21.21;76.85;102264.91;4975613;28;96511;-28
2023/10/07 10:16:14;;;;;;;4.90;1.35;;;;;;;21.21;75.30;102263.03;4973751;28;98261;-28
2023/10/07 10:19:11;;;;;;;5.70;1.38;;;;;;;21.29;75.21;102253.25;4973163;28;100937;-27
2023/10/07 10:21:37;;;;;;;8.70;2.00;;;;;;;21.36;75.07;102244.31;4974578;28;99165;-28
2023/10/07 10:24:03;;;;;;;3.92;1.40;;;;;;;21.38;74.62;102241.41;4974767;28;96560;-28
2023/10/07 10:26:33;;;;;;;5.57;1.80;;;;;;;21.50;73.68;102236.75;4974626;28;96840;-28
2023/10/07 10:29:00;;;;;;;7.30;2.15;;;;;;;21.61;74.21;102237.59;4973952;28;100033;-29
2023/10/07 10:31:33;;;;;;;6.07;1.90;;;;;;;21.75;73.04;102241.03;4972918;28;100711;-28
2023/10/07 10:34:04;;;;;;;4.65;1.67;;;;;;;21.73;71.81;102240.31;4973200;28;96699;-29
2023/10/07 10:36:31;;;;;;;9.30;2.38;;;;;;;21.73;74.04;102238.41;4974732;28;96798;-28
2023/10/07 10:39:00;;;;;;;8.60;2.05;;;;;;;21.75;72.35;102247.44;4974013;28;99794;-30
2023/10/07 10:41:27;;;;;;;4.28;1.40;;;;;;;21.94;72.12;102249.47;4974272;28;97970;-29
2023/10/07 10:44:03;;;;;;;10.30;1.98;;;;;;;22.02;72.07;102249.69;4975368;28;96722;-28
2023/10/07 10:46:28;;;;;;;7.75;1.75;;;;;;;22.14;71.42;102246.81;4976930;28;96645;-28
2023/10/07 10:48:54;;;;;;;7.40;1.92;;;;;;;22.19;71.06;102253.72;4977827;28;97690;-27
2023/10/07 10:51:20;;;;;;;3.88;1.83;;;;;;;22.33;70.75;102246.97;4977521;28;97950;-28
2023/10/07 10:53:47;;;;;;;7.13;1.95;;;;;;;22.35;70.65;102258.75;4977643;28;96490;-28
2023/10/07 10:56:13;;;;;;;4.20;1.60;;;;;;;22.40;70.62;102263.88;4976506;28;96962;-28
2023/10/07 10:58:39;;;;;;;12.80;1.88;;;;;;;22.41;70.32;102263.75;4977601;28;97614;-28
2023/10/07 11:01:08;;;;;;;3.65;1.38;;;;;;;22.27;71.27;102266.84;4977369;28;99230;-28
2023/10/07 11:03:36;;;;;;;4.93;1.48;;;;;;;22.14;71.48;102260.63;4976398;28;96668;-28
2023/10/07 11:06:06;;;;;;;5.80;1.73;;;;;;;22.05;71.32;102263.19;4977803;28;96755;-28
2023/10/07 11:08:33;;;;;;;6.80;1.80;;;;;;;22.02;71.95;102260.72;4976010;28;101882;-28
2023/10/07 11:10:58;;;;;;;8.85;1.80;;;;;;;21.97;72.21;102267.63;4976157;28;101313;-28
2023/10/07 11:13:25;;;;;;;4.18;1.77;;;;;;;21.89;72.66;102267.44;4976240;28;96594;-30
2023/10/07 11:16:10;;;;;;;7.38;1.80;;;;;;;21.81;72.79;102262.59;4976284;28;96789;-28
2023/10/07 11:18:43;;;;;;;5.80;2.08;;;;;;;21.69;73.07;102255.34;4976703;28;99532;-28
2023/10/07 11:21:12;;;;;;;13.25;2.38;;;;;;;21.63;72.91;102254.88;4975788;28;100828;-28
2023/10/07 11:23:46;;;;;;;8.80;2.10;;;;;;;21.56;71.71;102264.69;4976032;28;96678;-28
2023/10/07 11:26:12;;;;;;;3.85;1.83;;;;;;;21.64;73.39;102258.50;4975982;28;96845;-29
2023/10/07 11:28:38;;;;;;;3.90;1.58;;;;;;;21.68;72.91;102262.75;4977154;28;98097;-28
2023/10/07 11:31:06;;;;;;;4.50;2.10;;;;;;;21.63;72.53;102252.13;4975636;28;101740;-29
2023/10/07 11:33:34;;;;;;;8.43;1.83;;;;;;;21.68;72.19;102256.38;4975844;28;96615;-28
2023/10/07 11:36:02;;;;;;;6.68;1.65;;;;;;;21.61;72.84;102265.16;4976294;28;96829;-28
2023/10/07 11:38:28;;;;;;;5.15;1.70;;;;;;;21.44;71.26;102267.63;4975474;28;100655;-28
2023/10/07 11:40:55;;;;;;;6.40;1.83;;;;;;;21.44;71.75;102270.38;4975525;28;101061;-28
2023/10/07 11:43:23;;;;;;;4.57;2.00;;;;;;;21.47;72.01;102268.22;4974869;28;96923;-28
2023/10/07 11:45:50;;;;;;;3.90;1.60;;;;;;;21.44;72.36;102263.00;4975047;28;96965;-28
2023/10/07 11:48:17;;;;;;;6.28;1.70;;;;;;;21.38;72.33;102268.97;5008394;28;101000;-28
2023/10/07 11:50:46;;;;;;;4.47;1.77;;;;;;;21.44;71.91;102278.66;5008505;28;100109;-28
2023/10/07 11:53:12;;;;;;;5.05;1.88;;;;;;;21.32;72.23;102272.28;4976774;28;96609;-28
2023/10/07 11:55:37;;;;;;;6.15;1.77;;;;;;;21.27;72.10;102280.94;4975922;28;96833;-28
2023/10/07 11:58:06;;;;;;;5.68;1.77;;;;;;;21.08;72.11;102273.34;4976611;28;97500;-28
2023/10/07 12:00:34;;;;;;;8.63;1.90;;;;;;;21.03;73.28;102286.63;4975655;28;99084;-28
2023/10/07 12:03:01;;;;;;;6.15;1.65;;;;;;;21.07;72.65;102288.13;4976820;28;96653;-28
2023/10/07 12:05:28;;;;;;;3.80;1.52;;;;;;;21.01;72.46;102283.13;4976773;28;96773;-28
2023/10/07 12:08:01;;;;;;;6.90;1.83;;;;;;;20.99;72.70;102290.63;4974596;28;100839;-30
2023/10/07 12:10:33;;;;;;;4.93;1.77;;;;;;;20.92;71.87;102281.97;4974678;28;101796;-28
2023/10/07 12:12:59;;;;;;;5.93;1.77;;;;;;;20.88;73.34;102285.13;4976455;28;97581;-28
2023/10/07 12:15:25;;;;;;;7.47;1.80;;;;;;;20.88;73.06;102276.84;4975210;28;96718;-28
2023/10/07 12:17:51;;;;;;;10.48;2.38;;;;;;;20.88;73.67;102280.50;4976322;28;98068;-28
2023/10/07 12:20:16;;;;;;;4.50;1.80;;;;;;;20.83;73.84;102288.25;4974744;28;100714;-28
2023/10/07 12:22:43;;;;;;;4.15;2.13;;;;;;;20.75;74.17;102282.50;4976692;28;96517;-29